Accueil
METAR-TAF:

METAR-TAF

Aéroports :

Aéroport international de Nouakchott-Oumtounsy

Nouakchott, Mauritanie

latitude: 18-18-36N, longitude: 015-58-11W, altitude: 3 m

Observation

Le bulletin a été fait il y a 1 heure et 17 minutes, à 00:00 UTC
Vent 11 kt de nord-ouest
Température 19°C
Humidité 88%
Pression 1012 hPa
Visibilité 10 km ou plus
pas de nuages en-dessous de 1500 mètres et pas de cumulonimbus.

METAR: GQNO 260000Z 32011KT CAVOK 19/17 Q1012 NOSIG

Heure: 01:17 (01:17 UTC)

Prévision

Le bulletin a été fait il y a 2 heures et 17 minutes, à 23:00 UTC
Prévision valable du 26 à 00 UTC au 27 à 06 UTC
Vent 13 kt de nord/nord-ouest
Visibilité: 7000 m
Probabilité 40% :
Temporairement
du 26 à 02 UTC au 26 à 08 UTC
Nuages fragmentés à une hauteur de 800 ft
Temporairement
du 26 à 10 UTC au 26 à 13 UTC
Vent 10 kt de nord/nord-est

TAF: GQNO 252300Z 2600/2706 33013KT 7000 NSC PROB40 TEMPO 2602/2608 BKN008 TEMPO 2610/2613 03010KT

Observations et prévisions météorologiques de plus de 4000 aéroports (messages METAR et TAF).

Les stations disponibles sont représentées par des disques jaunes et rouges sur la carte.

Passer la souris dessus pour voir le nom de la station.

Cliquer dessus pour voir les observations et prévisions météorologiques.

Pour changer de carte: cliquez sur les boutons verts avec une croix noire pour zoomer, sur le bouton vert avec un tiret pour effectuer un zoom arrière, ou sur les flèches vertes pour les cartes adjacentes.


METAR-TAF: